Time;durP1;ratioP1;P1;durP2;ratioP2;P2;SDS_P1;SDS_P2;PMS_P1;PMS_P2;Temp;Humidity;BMP_temperature;BMP_pressure;BME280_temperature;BME280_humidity;BME280_pressure;Samples;Min_cycle;Max_cycle;Signal;HPM_P1;HPM_P2
2021/12/17 00:07:18;;;;;;;51.28;14.43;;;8.90;99.90;;;;;;4953949;28;39419;-76
2021/12/17 00:09:46;;;;;;;121.67;19.93;;;8.90;99.90;;;;;;4957755;28;39617;-76
2021/12/17 00:12:17;;;;;;;84.87;16.80;;;9.00;99.90;;;;;;4954643;28;38470;-76
2021/12/17 00:14:49;;;;;;;79.33;15.43;;;9.00;99.90;;;;;;4960661;28;36280;-76
2021/12/17 00:17:21;;;;;;;49.30;14.10;;;9.00;99.90;;;;;;4965908;28;39464;-76
2021/12/17 00:49:32;;;;;;;46.57;16.93;;;9.00;99.90;;;;;;4959027;28;38910;-76
2021/12/17 00:52:01;;;;;;;30.57;14.87;;;8.90;99.90;;;;;;4971285;28;37975;-76
2021/12/17 00:54:34;;;;;;;66.03;18.23;;;8.90;99.90;;;;;;4957701;28;47425;-76
2021/12/17 00:57:05;;;;;;;42.00;15.23;;;8.90;99.90;;;;;;4957590;28;37946;-76
2021/12/17 00:59:32;;;;;;;48.50;17.00;;;8.90;99.90;;;;;;4952461;28;47653;-76
2021/12/17 01:02:01;;;;;;;37.30;15.27;;;8.90;99.90;;;;;;4959396;28;37081;-75
2021/12/17 01:04:28;;;;;;;44.00;17.07;;;8.90;99.90;;;;;;4952327;28;48611;-76
2021/12/17 01:06:54;;;;;;;68.37;18.10;;;8.80;99.90;;;;;;4967541;28;36701;-76
2021/12/17 01:09:23;;;;;;;40.40;15.63;;;8.80;99.90;;;;;;4971698;28;39619;-75
2021/12/17 01:11:50;;;;;;;48.97;17.23;;;8.80;99.90;;;;;;4957431;28;40897;-75
2021/12/17 01:14:16;;;;;;;70.97;17.53;;;8.80;99.90;;;;;;4962050;28;37265;-76
2021/12/17 01:16:42;;;;;;;24.00;12.00;;;8.70;99.90;;;;;;4957789;28;38496;-76
2021/12/17 01:35:21;;;;;;;32.93;13.60;;;8.80;99.90;;;;;;4959976;28;39027;-76
2021/12/17 01:43:04;;;;;;;34.43;15.07;;;8.70;99.90;;;;;;4964472;28;40315;-76
2021/12/17 01:45:36;;;;;;;33.60;13.03;;;8.70;99.90;;;;;;4971905;28;40026;-76
2021/12/17 01:48:07;;;;;;;27.42;12.30;;;8.70;99.90;;;;;;4966551;28;36731;-76
2021/12/17 01:56:54;;;;;;;44.67;13.50;;;8.70;99.90;;;;;;4958616;28;39514;-76
2021/12/17 02:01:37;;;;;;;49.43;15.00;;;8.70;99.90;;;;;;4950076;28;50798;-77
2021/12/17 02:04:04;;;;;;;29.27;12.03;;;8.70;99.90;;;;;;4972028;28;39431;-76
2021/12/17 02:06:35;;;;;;;28.27;12.10;;;8.80;99.90;;;;;;4971286;28;37448;-76
2021/12/17 02:09:11;;;;;;;30.60;14.40;;;8.80;99.90;;;;;;4962562;28;38200;-76
2021/12/17 02:20:10;;;;;;;26.60;13.27;;;8.70;99.90;;;;;;4963555;28;49742;-76
2021/12/17 02:30:47;;;;;;;25.63;13.00;;;8.80;99.90;;;;;;4957330;28;49214;-76
2021/12/17 02:33:13;;;;;;;25.40;12.20;;;8.70;99.90;;;;;;4956185;28;39582;-76
2021/12/17 02:35:43;;;;;;;24.27;11.63;;;8.80;99.90;;;;;;4958547;28;39519;-75
2021/12/17 02:38:12;;;;;;;41.73;12.00;;;8.80;99.90;;;;;;4963856;28;39194;-76
2021/12/17 02:46:07;;;;;;;32.07;11.80;;;8.80;99.90;;;;;;4959195;28;39872;-76
2021/12/17 02:48:36;;;;;;;23.27;11.50;;;8.90;99.90;;;;;;4957683;28;39551;-76
2021/12/17 02:51:03;;;;;;;32.40;13.90;;;8.90;99.90;;;;;;4949037;28;35989;-76
2021/12/17 02:53:30;;;;;;;85.00;15.70;;;8.80;99.90;;;;;;4960159;28;39049;-76
2021/12/17 02:56:04;;;;;;;145.90;20.83;;;8.90;99.90;;;;;;4962257;28;40580;-76
2021/12/17 02:58:33;;;;;;;141.53;17.97;;;8.90;99.90;;;;;;4955335;28;48808;-76
2021/12/17 03:01:01;;;;;;;31.90;14.40;;;8.90;99.90;;;;;;4963734;28;37427;-76
2021/12/17 03:03:30;;;;;;;81.43;16.77;;;8.90;99.90;;;;;;4982290;28;47327;-76
2021/12/17 03:05:57;;;;;;;54.93;14.77;;;8.90;99.90;;;;;;4967414;28;39045;-77
2021/12/17 03:08:24;;;;;;;37.90;15.83;;;8.90;99.90;;;;;;4956173;28;39093;-77
2021/12/17 03:10:51;;;;;;;35.00;15.07;;;8.90;99.90;;;;;;4972860;28;38443;-76
2021/12/17 03:13:21;;;;;;;81.40;15.80;;;8.80;99.90;;;;;;4953330;28;39035;-77
2021/12/17 03:15:59;;;;;;;63.57;15.67;;;8.80;99.90;;;;;;4958955;28;39687;-77
2021/12/17 03:23:54;;;;;;;69.30;14.70;;;8.80;99.90;;;;;;4952422;28;39421;-77
2021/12/17 03:26:23;;;;;;;81.63;15.30;;;8.80;99.90;;;;;;4953460;28;38511;-76
2021/12/17 03:28:56;;;;;;;58.80;15.00;;;8.80;99.90;;;;;;4968413;28;38749;-76
2021/12/17 03:31:24;;;;;;;69.20;15.37;;;8.70;99.90;;;;;;4953040;28;37296;-77
2021/12/17 03:33:54;;;;;;;39.17;15.23;;;8.80;99.90;;;;;;4973131;28;40541;-77
2021/12/17 03:36:21;;;;;;;66.90;17.00;;;8.80;99.90;;;;;;4961126;28;38416;-77
2021/12/17 03:38:50;;;;;;;41.83;15.23;;;8.80;99.90;;;;;;4954374;28;38709;-76
2021/12/17 03:41:28;;;;;;;96.53;19.00;;;8.90;99.90;;;;;;4960084;28;37511;-76
2021/12/17 03:43:55;;;;;;;54.07;18.23;;;8.90;99.90;;;;;;4956611;28;39741;-76
2021/12/17 03:46:22;;;;;;;79.37;19.27;;;8.90;99.90;;;;;;4959226;28;40986;-76
2021/12/17 03:48:48;;;;;;;68.10;19.60;;;8.90;99.90;;;;;;4950046;28;37466;-76
2021/12/17 03:51:16;;;;;;;73.60;21.47;;;9.00;99.90;;;;;;4960130;28;37585;-77
2021/12/17 03:53:52;;;;;;;63.47;22.70;;;8.90;99.90;;;;;;4980213;28;38689;-76
2021/12/17 03:56:19;;;;;;;98.77;26.77;;;9.00;99.90;;;;;;4970205;28;38015;-76
2021/12/17 03:58:45;;;;;;;70.93;24.23;;;9.00;99.90;;;;;;4951934;28;38531;-75
2021/12/17 04:01:11;;;;;;;91.60;26.40;;;9.00;99.90;;;;;;4949349;28;37907;-76
2021/12/17 04:03:38;;;;;;;66.27;24.47;;;9.00;99.90;;;;;;4954624;28;39771;-75
2021/12/17 04:06:04;;;;;;;107.23;29.43;;;9.10;99.90;;;;;;4950059;28;38920;-76
2021/12/17 04:08:30;;;;;;;72.03;24.90;;;9.10;99.90;;;;;;4953754;28;38650;-76
2021/12/17 04:11:06;;;;;;;77.57;25.57;;;9.10;99.90;;;;;;4974276;28;37861;-76
2021/12/17 04:13:36;;;;;;;115.90;30.93;;;9.10;99.90;;;;;;4954549;28;48884;-76
2021/12/17 04:16:08;;;;;;;85.73;27.60;;;9.10;99.90;;;;;;4954168;28;39557;-76
2021/12/17 04:18:40;;;;;;;111.97;30.77;;;9.20;99.90;;;;;;4955510;28;39204;-76
2021/12/17 04:21:13;;;;;;;162.73;34.78;;;9.20;99.90;;;;;;4961971;28;37676;-77
2021/12/17 04:23:41;;;;;;;119.90;32.07;;;9.20;99.90;;;;;;4968153;28;37444;-76
2021/12/17 04:26:07;;;;;;;108.23;33.23;;;9.20;99.90;;;;;;4955980;28;39600;-76
2021/12/17 04:28:36;;;;;;;90.83;32.27;;;9.20;99.90;;;;;;4952097;28;36625;-76
2021/12/17 04:31:02;;;;;;;105.67;35.83;;;9.20;99.90;;;;;;4957350;28;38237;-76
2021/12/17 04:33:28;;;;;;;97.60;36.27;;;9.20;99.90;;;;;;4955367;28;38754;-76
2021/12/17 04:35:54;;;;;;;88.60;37.33;;;9.30;99.90;;;;;;4960202;28;38563;-75
2021/12/17 04:38:22;;;;;;;90.33;39.63;;;9.20;99.90;;;;;;4960540;28;38415;-75
2021/12/17 04:40:51;;;;;;;73.27;35.77;;;9.20;99.90;;;;;;4957677;28;38118;-75
2021/12/17 04:43:29;;;;;;;82.27;39.63;;;9.30;99.90;;;;;;4952472;28;40231;-75
2021/12/17 04:46:14;;;;;;;158.07;54.00;;;9.30;99.90;;;;;;4956661;28;39662;-76
2021/12/17 05:00:07;;;;;;;122.57;46.37;;;9.30;99.90;;;;;;4956484;28;48448;-75
2021/12/17 05:02:39;;;;;;;115.50;42.23;;;9.30;99.90;;;;;;4945721;28;47311;-76
2021/12/17 05:05:08;;;;;;;124.20;42.60;;;9.30;99.90;;;;;;4954848;28;38251;-77
2021/12/17 05:07:36;;;;;;;151.47;48.23;;;9.20;99.90;;;;;;4959639;28;39567;-76
2021/12/17 05:10:16;;;;;;;80.23;34.80;;;9.20;99.90;;;;;;4960541;28;38094;-76
2021/12/17 05:18:34;;;;;;;134.40;46.23;;;9.20;99.90;;;;;;4958827;28;39440;-76
2021/12/17 05:21:05;;;;;;;106.37;43.30;;;9.20;99.90;;;;;;4964679;28;37708;-76
2021/12/17 05:23:36;;;;;;;73.50;35.87;;;9.20;99.90;;;;;;4971088;28;47339;-76
2021/12/17 05:26:06;;;;;;;80.50;38.67;;;9.20;99.90;;;;;;4957720;28;40985;-77
2021/12/17 05:28:32;;;;;;;94.43;38.73;;;9.20;99.90;;;;;;4974443;28;38670;-77
2021/12/17 05:30:58;;;;;;;93.93;40.20;;;9.20;99.90;;;;;;4966308;28;37439;-78
2021/12/17 05:33:26;;;;;;;100.83;42.90;;;9.20;99.90;;;;;;4979378;28;36340;-77
2021/12/17 05:35:53;;;;;;;99.13;40.17;;;9.20;99.90;;;;;;4980792;28;38300;-77
2021/12/17 05:38:20;;;;;;;108.80;42.83;;;9.20;99.90;;;;;;4961086;28;38534;-76
2021/12/17 05:40:48;;;;;;;101.40;41.77;;;9.20;99.90;;;;;;4959874;28;37339;-76
2021/12/17 05:43:15;;;;;;;175.90;53.97;;;9.20;99.90;;;;;;4974271;28;37468;-77
2021/12/17 05:48:25;;;;;;;;;;;9.20;99.90;;;;;;4959443;28;38837;-77
2021/12/17 05:50:58;;;;;;;94.50;38.70;;;9.20;99.90;;;;;;4964619;28;37872;-76
2021/12/17 05:53:24;;;;;;;68.13;34.08;;;9.20;99.90;;;;;;4962882;28;36825;-76
2021/12/17 05:55:52;;;;;;;92.67;35.97;;;9.20;99.90;;;;;;4962235;28;39354;-76
2021/12/17 05:58:19;;;;;;;73.57;33.17;;;9.20;99.90;;;;;;4952743;28;39576;-76
2021/12/17 06:00:45;;;;;;;65.47;31.17;;;9.20;99.90;;;;;;4951111;28;37192;-77
2021/12/17 06:03:11;;;;;;;68.80;32.77;;;9.10;99.90;;;;;;4964698;28;37386;-76
2021/12/17 06:05:38;;;;;;;61.80;31.03;;;9.10;99.90;;;;;;4957532;28;38445;-76
2021/12/17 06:08:05;;;;;;;58.77;31.03;;;9.10;99.90;;;;;;4973993;28;38556;-76
2021/12/17 06:10:31;;;;;;;76.50;33.40;;;9.10;99.90;;;;;;4955593;28;40145;-77
2021/12/17 06:12:57;;;;;;;97.47;38.50;;;9.10;99.90;;;;;;4965154;28;38797;-76
2021/12/17 06:15:23;;;;;;;47.70;27.90;;;9.10;99.90;;;;;;4957562;28;37763;-77
2021/12/17 06:17:50;;;;;;;56.87;29.40;;;9.10;99.90;;;;;;4958490;28;42398;-77
2021/12/17 06:20:19;;;;;;;56.07;29.80;;;9.10;99.90;;;;;;4955253;28;39724;-77
2021/12/17 06:22:49;;;;;;;62.77;27.47;;;9.00;99.90;;;;;;4962246;28;37470;-76
2021/12/17 06:25:16;;;;;;;51.23;22.93;;;9.00;99.90;;;;;;4962562;28;36855;-76
2021/12/17 06:27:42;;;;;;;37.40;19.93;;;9.00;99.90;;;;;;4965200;28;37871;-76
2021/12/17 06:30:14;;;;;;;55.77;23.33;;;8.90;99.90;;;;;;4966915;28;38725;-76
2021/12/17 06:32:41;;;;;;;41.97;20.88;;;9.00;99.90;;;;;;4978002;28;37374;-76
2021/12/17 06:35:08;;;;;;;44.33;22.03;;;9.00;99.90;;;;;;4980353;28;38365;-75
2021/12/17 06:37:34;;;;;;;50.87;25.43;;;9.00;99.90;;;;;;4957424;28;37773;-75
2021/12/17 06:40:04;;;;;;;42.17;23.23;;;9.00;99.90;;;;;;4959657;28;37444;-76
2021/12/17 06:42:31;;;;;;;46.50;23.43;;;9.00;99.90;;;;;;4959120;28;48251;-77
2021/12/17 06:45:01;;;;;;;43.57;22.20;;;9.00;99.90;;;;;;4967174;28;38296;-77
2021/12/17 06:47:32;;;;;;;44.33;22.73;;;9.00;99.90;;;;;;4978658;28;37161;-76
2021/12/17 07:11:12;;;;;;;48.10;24.17;;;9.10;99.90;;;;;;4971148;28;39062;-76
2021/12/17 07:22:15;;;;;;;37.77;21.10;;;9.10;99.90;;;;;;4978615;28;49159;-76
2021/12/17 07:35:46;;;;;;;87.10;30.47;;;9.20;99.90;;;;;;4963064;28;49208;-76
2021/12/17 07:40:58;;;;;;;51.27;22.83;;;9.20;99.90;;;;;;4954684;28;39445;-76
2021/12/17 07:43:37;;;;;;;90.40;28.70;;;9.20;99.90;;;;;;4960388;28;37659;-75
2021/12/17 07:46:07;;;;;;;58.73;24.40;;;9.20;99.90;;;;;;4968744;28;36564;-76
2021/12/17 07:48:33;;;;;;;72.97;25.60;;;9.20;99.90;;;;;;4959851;28;38433;-76
2021/12/17 07:51:02;;;;;;;51.53;22.50;;;9.10;99.90;;;;;;4959699;28;38816;-75
2021/12/17 07:53:30;;;;;;;54.83;21.17;;;9.20;99.90;;;;;;4960394;28;48784;-76
2021/12/17 07:55:57;;;;;;;47.67;20.07;;;9.20;99.90;;;;;;4958181;28;37648;-75
2021/12/17 07:58:23;;;;;;;42.70;19.00;;;9.20;99.90;;;;;;4973752;28;37880;-76
2021/12/17 08:00:49;;;;;;;40.83;17.93;;;9.20;99.90;;;;;;4958884;28;38626;-76
2021/12/17 08:03:16;;;;;;;56.33;20.17;;;9.30;99.90;;;;;;4952679;28;37564;-76
2021/12/17 08:05:43;;;;;;;49.20;19.57;;;9.30;99.90;;;;;;4954326;28;36442;-75
2021/12/17 08:08:10;;;;;;;38.47;18.00;;;9.30;99.90;;;;;;4953790;28;37570;-77
2021/12/17 08:10:36;;;;;;;51.40;20.10;;;9.30;99.90;;;;;;4957805;28;38398;-77
2021/12/17 08:13:05;;;;;;;42.60;16.77;;;9.30;99.90;;;;;;4955963;28;37366;-76
2021/12/17 08:15:37;;;;;;;57.93;19.43;;;9.30;99.90;;;;;;4961569;28;47116;-77
2021/12/17 08:18:27;;;;;;;46.50;17.40;;;9.30;99.90;;;;;;4957114;28;38844;-78
2021/12/17 08:31:21;;;;;;;37.90;16.47;;;9.40;99.90;;;;;;4961457;28;40977;-76
2021/12/17 08:33:48;;;;;;;31.83;14.30;;;9.40;99.90;;;;;;4951982;28;39194;-77
2021/12/17 08:36:17;;;;;;;43.60;15.53;;;9.40;99.90;;;;;;4961463;28;36857;-77
2021/12/17 08:38:44;;;;;;;38.67;15.50;;;9.40;99.90;;;;;;4973880;28;37362;-77
2021/12/17 08:41:11;;;;;;;33.53;13.93;;;9.50;99.90;;;;;;4956530;28;37935;-76
2021/12/17 08:43:38;;;;;;;35.40;13.70;;;9.50;99.90;;;;;;4956174;28;38612;-77
2021/12/17 08:46:04;;;;;;;57.67;17.93;;;9.50;99.90;;;;;;4955607;28;37682;-77
2021/12/17 08:48:30;;;;;;;30.43;13.77;;;9.50;99.90;;;;;;4958458;28;40768;-77
2021/12/17 08:50:57;;;;;;;41.70;14.43;;;9.50;99.90;;;;;;4953624;28;38019;-76
2021/12/17 08:53:23;;;;;;;35.53;14.27;;;9.50;99.90;;;;;;4955008;28;38593;-77
2021/12/17 08:55:49;;;;;;;35.03;15.03;;;9.60;99.90;;;;;;4960061;28;38501;-76
2021/12/17 08:58:16;;;;;;;29.97;13.60;;;9.60;99.90;;;;;;4969922;28;37617;-76
2021/12/17 09:00:43;;;;;;;31.43;13.97;;;9.60;99.90;;;;;;4955672;28;39127;-78
2021/12/17 09:03:10;;;;;;;36.53;13.50;;;9.50;99.90;;;;;;4959967;28;36905;-76
2021/12/17 09:05:38;;;;;;;26.03;11.60;;;9.60;99.90;;;;;;4951037;28;36391;-76
2021/12/17 09:08:06;;;;;;;28.67;12.90;;;9.60;99.90;;;;;;4967518;28;38788;-77
2021/12/17 09:10:33;;;;;;;38.57;14.37;;;9.60;99.90;;;;;;4956666;28;38623;-76
2021/12/17 09:12:59;;;;;;;29.80;12.63;;;9.70;99.90;;;;;;4959556;28;38571;-76
2021/12/17 09:15:26;;;;;;;28.90;13.13;;;9.70;99.90;;;;;;4954819;28;38748;-77
2021/12/17 09:17:52;;;;;;;27.40;11.63;;;9.70;99.90;;;;;;4958566;28;38782;-77
2021/12/17 09:20:18;;;;;;;26.97;11.47;;;9.70;99.90;;;;;;4961036;28;38596;-77
2021/12/17 09:22:44;;;;;;;23.03;10.40;;;9.70;99.90;;;;;;4957173;28;38780;-76
2021/12/17 09:25:11;;;;;;;21.77;10.63;;;9.70;99.90;;;;;;4957700;28;37579;-77
2021/12/17 09:27:38;;;;;;;19.30;9.23;;;9.80;99.90;;;;;;4962409;28;37580;-77
2021/12/17 09:30:08;;;;;;;14.93;8.40;;;9.70;99.90;;;;;;4959708;28;39716;-77
2021/12/17 09:32:35;;;;;;;22.83;10.27;;;9.70;99.90;;;;;;4936036;28;48465;-77
2021/12/17 09:35:01;;;;;;;21.77;9.67;;;9.70;99.90;;;;;;4946070;28;38994;-76
2021/12/17 09:37:27;;;;;;;18.43;9.07;;;9.80;99.90;;;;;;4960619;28;47135;-76
2021/12/17 09:39:53;;;;;;;16.90;8.37;;;9.90;99.90;;;;;;4955485;28;38906;-76
2021/12/17 09:42:19;;;;;;;24.70;10.73;;;9.80;99.90;;;;;;4959125;28;38211;-76
2021/12/17 09:44:45;;;;;;;19.00;8.00;;;9.90;99.90;;;;;;4956297;28;36754;-77
2021/12/17 09:47:11;;;;;;;21.20;9.13;;;9.80;99.90;;;;;;4958499;28;39161;-76
2021/12/17 09:49:38;;;;;;;19.80;8.67;;;9.90;99.90;;;;;;4962019;28;39245;-77
2021/12/17 09:52:04;;;;;;;15.63;8.00;;;9.90;99.90;;;;;;4951399;28;38785;-76
2021/12/17 09:54:30;;;;;;;23.57;9.27;;;9.90;99.90;;;;;;4957370;28;37721;-76
2021/12/17 09:56:56;;;;;;;17.07;8.80;;;9.80;99.90;;;;;;4974670;28;40073;-76
2021/12/17 09:59:23;;;;;;;18.07;8.50;;;9.90;99.90;;;;;;4961515;28;39289;-76
2021/12/17 10:01:49;;;;;;;18.23;9.07;;;9.90;99.90;;;;;;4960239;28;39122;-76
2021/12/17 10:04:24;;;;;;;15.90;7.70;;;10.00;99.90;;;;;;4962343;28;37477;-76
2021/12/17 10:06:51;;;;;;;12.43;6.40;;;10.00;99.90;;;;;;4956713;28;37211;-76
2021/12/17 10:09:18;;;;;;;10.97;6.03;;;10.00;99.90;;;;;;4962941;28;39234;-76
2021/12/17 10:12:04;;;;;;;15.40;7.17;;;10.00;99.90;;;;;;4956879;28;39095;-75
2021/12/17 10:14:31;;;;;;;14.47;7.30;;;10.10;99.90;;;;;;4960678;28;47049;-76
2021/12/17 10:17:12;;;;;;;11.50;6.83;;;10.10;99.90;;;;;;4951809;28;37526;-76
2021/12/17 10:19:56;;;;;;;15.20;7.97;;;10.10;99.90;;;;;;4968359;28;47094;-75
2021/12/17 10:22:25;;;;;;;13.97;7.07;;;10.20;99.90;;;;;;4963363;28;37677;-76
2021/12/17 10:25:09;;;;;;;14.10;6.63;;;10.30;99.90;;;;;;4963206;28;39139;-76
2021/12/17 10:27:39;;;;;;;9.87;5.77;;;10.30;99.90;;;;;;4953254;28;48038;-76
2021/12/17 10:30:16;;;;;;;8.50;5.33;;;10.20;99.90;;;;;;4958447;28;40078;-76
2021/12/17 10:32:45;;;;;;;9.57;4.90;;;10.30;99.90;;;;;;4962858;28;47290;-75
2021/12/17 10:35:15;;;;;;;8.77;4.87;;;10.20;99.90;;;;;;4951109;28;37520;-76
2021/12/17 10:37:44;;;;;;;8.80;5.10;;;10.20;99.90;;;;;;4971675;28;38991;-75
2021/12/17 10:40:22;;;;;;;8.20;5.53;;;10.10;99.90;;;;;;4953067;28;38940;-75
2021/12/17 10:43:04;;;;;;;9.60;5.50;;;10.20;99.90;;;;;;4976210;28;40181;-75
2021/12/17 10:45:34;;;;;;;10.27;5.67;;;10.20;99.90;;;;;;4954550;28;47446;-76
2021/12/17 10:48:22;;;;;;;9.17;4.97;;;10.20;99.90;;;;;;4961263;28;38856;-76
2021/12/17 10:50:51;;;;;;;9.80;5.73;;;10.10;99.90;;;;;;4962705;28;46911;-76
2021/12/17 10:53:25;;;;;;;13.10;6.20;;;10.10;99.90;;;;;;4961245;28;37821;-75
2021/12/17 10:55:52;;;;;;;12.80;7.20;;;10.10;99.90;;;;;;4961169;28;37998;-77
2021/12/17 10:58:19;;;;;;;6.10;4.13;;;10.10;99.90;;;;;;4960157;28;39590;-76
2021/12/17 11:00:57;;;;;;;8.50;4.03;;;10.10;99.90;;;;;;4971481;28;40730;-76
2021/12/17 11:03:23;;;;;;;7.57;4.27;;;10.20;99.90;;;;;;4952411;28;38529;-75
2021/12/17 11:05:50;;;;;;;4.83;3.13;;;10.20;99.90;;;;;;4956089;28;37751;-75
2021/12/17 11:08:33;;;;;;;9.67;4.23;;;10.20;99.90;;;;;;4950947;28;39555;-75
2021/12/17 11:11:10;;;;;;;5.57;3.47;;;10.20;99.90;;;;;;4968656;28;39564;-75
2021/12/17 11:13:51;;;;;;;5.53;3.50;;;10.20;99.90;;;;;;4972517;28;47040;-75
2021/12/17 11:16:19;;;;;;;3.80;2.90;;;10.30;99.90;;;;;;4960510;28;37198;-75
2021/12/17 11:18:46;;;;;;;6.63;3.23;;;10.30;99.90;;;;;;4966542;28;38964;-75
2021/12/17 11:21:13;;;;;;;5.57;3.37;;;10.30;99.90;;;;;;4953455;28;40257;-76
2021/12/17 11:23:39;;;;;;;3.73;2.97;;;10.30;99.90;;;;;;4956815;28;38666;-76
2021/12/17 11:26:06;;;;;;;4.30;3.00;;;10.30;99.90;;;;;;4957120;28;36723;-76
2021/12/17 11:28:32;;;;;;;3.97;3.23;;;10.30;99.90;;;;;;4962274;28;39574;-75
2021/12/17 11:30:59;;;;;;;4.57;3.33;;;10.30;99.90;;;;;;4956604;28;38243;-75
2021/12/17 11:33:25;;;;;;;5.00;3.00;;;10.40;99.90;;;;;;4969054;28;39992;-76
2021/12/17 11:35:52;;;;;;;5.87;3.40;;;10.40;99.90;;;;;;4956098;28;36929;-75
2021/12/17 11:38:40;;;;;;;5.50;3.17;;;10.30;99.90;;;;;;4955421;28;38989;-75
2021/12/17 11:41:15;;;;;;;6.17;3.63;;;10.30;99.90;;;;;;4966336;28;37791;-75
2021/12/17 11:43:53;;;;;;;6.53;3.70;;;10.30;99.90;;;;;;4965007;28;37516;-75
2021/12/17 11:46:25;;;;;;;5.70;3.57;;;10.30;99.90;;;;;;4955633;28;37330;-75
2021/12/17 11:49:00;;;;;;;4.38;3.08;;;10.20;99.90;;;;;;4959603;28;37548;-75
2021/12/17 11:51:29;;;;;;;5.57;3.10;;;10.20;99.90;;;;;;4956980;28;40995;-76
2021/12/17 11:54:04;;;;;;;6.40;3.77;;;10.20;99.90;;;;;;4954487;28;38428;-75
2021/12/17 11:57:04;;;;;;;5.97;3.77;;;10.20;99.90;;;;;;4946765;28;46977;-75
2021/12/17 11:59:34;;;;;;;5.77;3.47;;;10.20;99.90;;;;;;4942158;28;47029;-74
2021/12/17 12:02:11;;;;;;;7.03;4.17;;;10.20;99.90;;;;;;4971520;28;37934;-75
2021/12/17 12:04:41;;;;;;;7.43;3.60;;;10.20;99.90;;;;;;4958809;28;48478;-75
2021/12/17 12:07:13;;;;;;;4.77;3.63;;;10.20;99.90;;;;;;4950474;28;36813;-75
2021/12/17 12:10:08;;;;;;;8.45;5.30;;;10.20;99.90;;;;;;4957711;28;39424;-75
2021/12/17 12:12:34;;;;;;;7.87;5.53;;;10.20;99.90;;;;;;4956019;28;48878;-75
2021/12/17 12:15:19;;;;;;;7.47;4.63;;;10.10;99.90;;;;;;4955885;28;39210;-76
2021/12/17 12:17:58;;;;;;;8.60;5.60;;;10.10;99.90;;;;;;4957915;28;47468;-75
2021/12/17 12:20:55;;;;;;;6.93;5.00;;;10.10;99.90;;;;;;4956687;28;38905;-75
2021/12/17 12:23:31;;;;;;;7.50;4.87;;;10.10;99.90;;;;;;4951043;28;38837;-76
2021/12/17 12:26:07;;;;;;;9.87;5.80;;;10.10;99.90;;;;;;4955720;28;37475;-74
2021/12/17 12:28:46;;;;;;;9.27;6.50;;;10.10;99.90;;;;;;4949108;28;47128;-74
2021/12/17 12:31:13;;;;;;;10.90;6.53;;;10.20;99.90;;;;;;4956334;28;39288;-76
2021/12/17 12:34:03;;;;;;;7.27;5.77;;;10.10;99.90;;;;;;4954986;28;38988;-74
2021/12/17 12:37:06;;;;;;;7.77;5.80;;;10.10;99.90;;;;;;4949497;28;47823;-75
2021/12/17 12:39:39;;;;;;;9.40;6.13;;;10.10;99.90;;;;;;4950197;28;48589;-75
2021/12/17 12:42:30;;;;;;;8.90;6.15;;;10.10;99.90;;;;;;4955632;28;39973;-75
2021/12/17 12:44:56;;;;;;;8.13;5.43;;;10.10;99.90;;;;;;4959811;28;39783;-75
2021/12/17 12:47:31;;;;;;;10.93;6.17;;;10.00;99.90;;;;;;4953126;28;38435;-75
2021/12/17 12:50:07;;;;;;;8.90;5.87;;;10.00;99.90;;;;;;4960166;28;38201;-75
2021/12/17 12:52:45;;;;;;;7.93;6.03;;;9.90;99.90;;;;;;4951051;28;47236;-75
2021/12/17 12:55:28;;;;;;;12.43;7.23;;;9.90;99.90;;;;;;4966399;28;38256;-75
2021/12/17 12:58:03;;;;;;;10.15;6.75;;;10.00;99.90;;;;;;4949892;28;37939;-76
2021/12/17 13:00:31;;;;;;;9.80;6.63;;;9.90;99.90;;;;;;4969942;28;47502;-75
2021/12/17 13:03:13;;;;;;;10.10;6.60;;;9.90;99.90;;;;;;4951480;28;37446;-76
2021/12/17 13:05:44;;;;;;;8.47;6.00;;;9.90;99.90;;;;;;4963305;28;49204;-75
2021/12/17 13:08:15;;;;;;;10.00;6.73;;;9.90;99.90;;;;;;4951643;28;38539;-75
2021/12/17 13:10:45;;;;;;;9.30;6.50;;;9.90;99.90;;;;;;4960027;28;37789;-77
2021/12/17 13:13:19;;;;;;;10.00;6.97;;;9.90;99.90;;;;;;4955347;28;37156;-75
2021/12/17 13:16:06;;;;;;;11.03;7.40;;;9.90;99.90;;;;;;4958190;28;38841;-75
2021/12/17 13:23:52;;;;;;;9.77;7.30;;;9.90;99.90;;;;;;4965009;28;39401;-75
2021/12/17 13:26:23;;;;;;;10.50;7.37;;;9.90;99.90;;;;;;4960130;28;37931;-75
2021/12/17 13:28:59;;;;;;;10.30;7.37;;;9.90;99.90;;;;;;4973474;28;37213;-75
2021/12/17 13:31:35;;;;;;;10.30;7.37;;;9.90;99.90;;;;;;4952815;28;37256;-75
2021/12/17 13:34:24;;;;;;;10.17;7.73;;;9.90;99.90;;;;;;4961668;28;39198;-75
2021/12/17 13:37:00;;;;;;;10.47;7.20;;;9.80;99.90;;;;;;4964857;28;47403;-75
2021/12/17 13:39:30;;;;;;;9.40;6.70;;;9.80;99.90;;;;;;4952812;28;38449;-75
2021/12/17 13:41:57;;;;;;;10.67;8.17;;;9.90;99.90;;;;;;4969516;28;37642;-74
2021/12/17 13:44:36;;;;;;;15.00;9.43;;;9.90;99.90;;;;;;4960814;28;37838;-74
2021/12/17 13:47:25;;;;;;;10.87;7.63;;;9.90;99.90;;;;;;4955481;28;39529;-75
2021/12/17 13:50:07;;;;;;;10.53;8.50;;;9.90;99.90;;;;;;4958467;28;36761;-74
2021/12/17 13:52:55;;;;;;;10.88;7.45;;;9.80;99.90;;;;;;4965373;28;47498;-75
2021/12/17 13:55:38;;;;;;;11.20;7.90;;;9.80;99.90;;;;;;4952987;28;38764;-75
2021/12/17 13:58:13;;;;;;;11.68;8.23;;;9.80;99.90;;;;;;4965381;28;39577;-75
2021/12/17 14:00:46;;;;;;;10.50;7.50;;;9.80;99.90;;;;;;4962341;28;39304;-75
2021/12/17 14:03:15;;;;;;;12.60;8.57;;;9.80;99.90;;;;;;4981299;28;36088;-74
2021/12/17 14:05:51;;;;;;;10.37;8.53;;;9.80;99.90;;;;;;4966578;28;39086;-74
2021/12/17 14:08:19;;;;;;;12.67;8.67;;;9.80;99.90;;;;;;4962931;28;37965;-74
2021/12/17 14:10:47;;;;;;;13.27;9.70;;;9.80;99.90;;;;;;4979995;28;37634;-75
2021/12/17 14:13:19;;;;;;;11.80;8.00;;;9.70;99.90;;;;;;4971310;28;37942;-75
2021/12/17 14:15:46;;;;;;;10.83;7.67;;;9.70;99.90;;;;;;4957791;28;40391;-74
2021/12/17 14:18:20;;;;;;;12.30;9.23;;;9.70;99.90;;;;;;4958069;28;39522;-75
2021/12/17 14:20:57;;;;;;;10.70;7.50;;;9.70;99.90;;;;;;4966347;28;38504;-75
2021/12/17 14:23:28;;;;;;;10.70;8.10;;;9.70;99.90;;;;;;4955085;28;37300;-75
2021/12/17 14:26:05;;;;;;;11.57;8.00;;;9.70;99.90;;;;;;4957507;28;39570;-75
2021/12/17 14:28:35;;;;;;;11.17;8.50;;;9.70;99.90;;;;;;4945666;28;48526;-73
2021/12/17 14:31:14;;;;;;;10.47;7.70;;;9.60;99.90;;;;;;4954606;28;38475;-74
2021/12/17 14:33:49;;;;;;;10.77;7.87;;;9.60;99.90;;;;;;4959658;28;39000;-75
2021/12/17 14:36:25;;;;;;;13.83;8.40;;;9.60;99.90;;;;;;4956395;28;39482;-74
2021/12/17 14:38:58;;;;;;;11.57;8.50;;;9.60;99.90;;;;;;4951796;28;38715;-74
2021/12/17 14:41:32;;;;;;;12.00;7.97;;;9.60;99.90;;;;;;4949101;28;38386;-74
2021/12/17 14:44:12;;;;;;;13.10;9.00;;;9.50;99.90;;;;;;4955553;28;37408;-74
2021/12/17 14:46:46;;;;;;;14.43;9.60;;;9.50;99.90;;;;;;4957794;28;48948;-74
2021/12/17 15:02:50;;;;;;;;;;;9.60;99.90;;;;;;4954853;28;49103;-74
2021/12/17 15:05:21;;;;;;;22.60;12.67;;;9.60;99.90;;;;;;4968473;28;37212;-74
2021/12/17 15:07:48;;;;;;;15.77;10.93;;;9.60;99.90;;;;;;4956253;28;39161;-74
2021/12/17 15:10:18;;;;;;;15.97;12.00;;;9.60;99.90;;;;;;4963374;28;38794;-74
2021/12/17 15:12:45;;;;;;;19.10;13.10;;;9.60;99.90;;;;;;4958303;28;39468;-74
2021/12/17 15:15:15;;;;;;;21.67;11.80;;;9.60;99.90;;;;;;4955688;28;37078;-74
2021/12/17 15:17:42;;;;;;;16.13;11.57;;;9.50;99.90;;;;;;4966822;28;37370;-74
2021/12/17 15:20:11;;;;;;;19.83;13.43;;;9.50;99.90;;;;;;4961875;28;38234;-75
2021/12/17 15:22:39;;;;;;;22.07;14.67;;;9.50;99.90;;;;;;4966771;28;39466;-74
2021/12/17 15:25:06;;;;;;;17.93;13.00;;;9.50;99.90;;;;;;4964894;28;37549;-74
2021/12/17 15:27:34;;;;;;;20.70;13.33;;;9.50;99.90;;;;;;4961822;28;37826;-74
2021/12/17 15:30:07;;;;;;;19.07;13.97;;;9.50;99.90;;;;;;4954980;28;37669;-73
2021/12/17 15:32:33;;;;;;;18.30;13.07;;;9.50;99.90;;;;;;4956716;28;47516;-73
2021/12/17 15:34:59;;;;;;;16.50;11.90;;;9.50;99.90;;;;;;4952868;28;35626;-73
2021/12/17 15:37:25;;;;;;;19.97;13.10;;;9.50;99.90;;;;;;4958700;28;37717;-73
2021/12/17 15:39:51;;;;;;;16.27;11.70;;;9.50;99.90;;;;;;4957788;28;37668;-73
2021/12/17 15:42:18;;;;;;;19.03;12.33;;;9.50;99.90;;;;;;4955901;28;38415;-73
2021/12/17 15:44:44;;;;;;;15.50;11.93;;;9.50;99.90;;;;;;4973310;28;37787;-73
2021/12/17 15:47:10;;;;;;;13.50;10.63;;;9.50;99.90;;;;;;4957841;28;40659;-73
2021/12/17 15:49:37;;;;;;;12.63;10.13;;;9.50;99.90;;;;;;4958970;28;39033;-73
2021/12/17 15:52:06;;;;;;;12.77;10.03;;;9.50;99.90;;;;;;4954252;28;38255;-74
2021/12/17 15:54:32;;;;;;;12.67;8.97;;;9.50;99.90;;;;;;4957793;28;38124;-74
2021/12/17 15:56:58;;;;;;;18.90;13.17;;;9.50;99.90;;;;;;4974898;28;38874;-74
2021/12/17 15:59:24;;;;;;;15.63;11.13;;;9.50;99.90;;;;;;4960807;28;40215;-73
2021/12/17 16:01:50;;;;;;;9.63;7.83;;;9.60;99.90;;;;;;4959668;28;39537;-73
2021/12/17 16:04:17;;;;;;;10.80;7.33;;;9.60;99.90;;;;;;4961232;28;37389;-74